Time,TemperatureF,DewpointF,PressureIn,WindDirection,WindDirectionDegrees,WindSpeedMPH,WindSpeedGustMPH,Humidity,HourlyPrecipIn,Conditions,Clouds,dailyrainin,SoftwareType,DateUTC
2013-08-25 00:02:00,61.6,56.0,0.00,ESE,106,2.1,4.3,82,0.00,,,0.00,WUHU216CR1000,2013-08-25 07:02:00,
2013-08-25 00:07:00,62.0,56.1,0.00,East,92,3.1,4.6,81,0.00,,,0.00,WUHU216CR1000,2013-08-25 07:07:00,
2013-08-25 00:12:00,62.0,56.1,0.00,East,92,3.1,4.6,81,0.00,,,0.00,WUHU216CR1000,2013-08-25 07:12:00,
2013-08-25 00:17:00,61.6,56.0,0.00,ESE,119,1.7,4.6,82,0.00,,,0.00,WUHU216CR1000,2013-08-25 07:17:00,
2013-08-25 00:22:00,61.6,56.0,0.00,ESE,119,1.7,3.7,82,0.00,,,0.00,WUHU216CR1000,2013-08-25 07:22:00,
2013-08-25 00:27:00,61.6,56.0,0.00,ESE,119,1.7,3.7,82,0.00,,,0.00,WUHU216CR1000,2013-08-25 07:27:00,
2013-08-25 00:32:00,60.9,55.6,0.00,West,269,1.3,3.9,83,0.00,,,0.00,WUHU216CR1000,2013-08-25 07:32:00,
2013-08-25 00:37:00,60.9,55.6,0.00,West,269,1.3,3.9,83,0.00,,,0.00,WUHU216CR1000,2013-08-25 07:37:00,
2013-08-25 00:42:00,60.9,55.6,0.00,West,269,1.3,3.9,83,0.00,,,0.00,WUHU216CR1000,2013-08-25 07:42:00,
2013-08-25 00:47:00,61.4,55.7,0.00,NNE,33,1.7,3.9,82,0.00,,,0.00,WUHU216CR1000,2013-08-25 07:47:00,
2013-08-25 00:52:00,61.4,55.7,0.00,NNE,33,1.7,2.6,82,0.00,,,0.00,WUHU216CR1000,2013-08-25 07:52:00,
2013-08-25 00:57:00,61.4,55.7,0.00,NNE,33,1.7,2.6,82,0.00,,,0.00,WUHU216CR1000,2013-08-25 07:57:00,
2013-08-25 01:02:00,61.8,56.2,0.00,ENE,77,1.3,3.1,82,0.00,,,0.00,WUHU216CR1000,2013-08-25 08:02:00,
2013-08-25 01:07:00,61.8,56.2,0.00,ENE,77,1.3,3.1,82,0.00,,,0.00,WUHU216CR1000,2013-08-25 08:07:00,
2013-08-25 01:12:00,61.8,56.2,0.00,ENE,77,1.3,3.1,82,0.00,,,0.00,WUHU216CR1000,2013-08-25 08:12:00,
2013-08-25 01:17:00,61.3,56.2,0.00,SSE,160,0.6,3.1,83,0.00,,,0.00,WUHU216CR1000,2013-08-25 08:17:00,
2013-08-25 01:22:00,61.3,56.2,0.00,SSE,160,0.6,2.9,83,0.00,,,0.00,WUHU216CR1000,2013-08-25 08:22:00,
2013-08-25 01:27:00,61.3,56.2,0.00,SSE,160,0.6,2.9,83,0.00,,,0.00,WUHU216CR1000,2013-08-25 08:27:00,
2013-08-25 01:32:00,61.8,56.2,0.00,East,93,0.5,2.9,82,0.00,,,0.00,WUHU216CR1000,2013-08-25 08:32:00,
2013-08-25 01:37:00,61.8,56.2,0.00,East,93,0.5,2.3,82,0.00,,,0.00,WUHU216CR1000,2013-08-25 08:37:00,
2013-08-25 01:42:00,61.8,56.2,0.00,East,93,0.5,2.3,82,0.00,,,0.00,WUHU216CR1000,2013-08-25 08:42:00,
2013-08-25 01:47:00,61.2,56.2,0.00,North,0,0.0,2.3,83,0.00,,,0.00,WUHU216CR1000,2013-08-25 08:47:00,
2013-08-25 01:52:00,61.2,56.2,0.00,North,0,0.0,0.0,83,0.00,,,0.00,WUHU216CR1000,2013-08-25 08:52:00,
2013-08-25 01:57:00,61.2,56.2,0.00,North,0,0.0,0.0,83,0.00,,,0.00,WUHU216CR1000,2013-08-25 08:57:00,
2013-08-25 02:02:00,61.3,56.3,0.00,NE,40,0.6,2.5,84,0.00,,,0.00,WUHU216CR1000,2013-08-25 09:02:00,
2013-08-25 02:07:00,61.3,56.3,0.00,NE,40,0.6,2.5,84,0.00,,,0.00,WUHU216CR1000,2013-08-25 09:07:00,
2013-08-25 02:12:00,61.3,56.3,0.00,NE,40,0.6,2.5,84,0.00,,,0.00,WUHU216CR1000,2013-08-25 09:12:00,
2013-08-25 02:17:00,61.2,56.2,0.00,NE,52,0.6,2.5,84,0.00,,,0.00,WUHU216CR1000,2013-08-25 09:17:00,
2013-08-25 02:22:00,61.2,56.2,0.00,NE,52,0.6,2.0,84,0.00,,,0.00,WUHU216CR1000,2013-08-25 09:22:00,
2013-08-25 02:27:00,61.2,56.2,0.00,NE,52,0.6,2.0,84,0.00,,,0.00,WUHU216CR1000,2013-08-25 09:27:00,
2013-08-25 02:32:00,60.7,56.3,0.00,North,0,0.0,2.0,85,0.00,,,0.00,WUHU216CR1000,2013-08-25 09:32:00,
2013-08-25 02:37:00,60.7,56.3,0.00,North,0,0.0,0.0,85,0.00,,,0.00,WUHU216CR1000,2013-08-25 09:37:00,
2013-08-25 02:42:00,60.7,56.3,0.00,North,0,0.0,0.0,85,0.00,,,0.00,WUHU216CR1000,2013-08-25 09:42:00,
2013-08-25 02:47:00,60.3,56.3,0.00,East,84,0.7,3.1,87,0.00,,,0.00,WUHU216CR1000,2013-08-25 09:47:00,
2013-08-25 02:52:00,60.3,56.3,0.00,East,84,0.7,3.1,87,0.00,,,0.00,WUHU216CR1000,2013-08-25 09:52:00,
2013-08-25 02:57:00,60.3,56.3,0.00,East,84,0.7,3.1,87,0.00,,,0.00,WUHU216CR1000,2013-08-25 09:57:00,
2013-08-25 03:02:00,59.5,55.6,0.00,North,0,0.0,3.1,87,0.00,,,0.00,WUHU216CR1000,2013-08-25 10:02:00,
2013-08-25 03:07:00,59.5,55.6,0.00,North,0,0.0,0.0,87,0.00,,,0.00,WUHU216CR1000,2013-08-25 10:07:00,
2013-08-25 03:12:00,59.5,55.6,0.00,North,0,0.0,0.0,87,0.00,,,0.00,WUHU216CR1000,2013-08-25 10:12:00,
2013-08-25 03:17:00,58.5,55.0,0.00,SSW,211,0.0,2.3,88,0.00,,,0.00,WUHU216CR1000,2013-08-25 10:17:00,
2013-08-25 03:22:00,58.5,55.0,0.00,SSW,211,0.0,2.3,88,0.00,,,0.00,WUHU216CR1000,2013-08-25 10:22:00,
2013-08-25 03:27:00,58.5,55.0,0.00,SSW,211,0.0,2.3,88,0.00,,,0.00,WUHU216CR1000,2013-08-25 10:27:00,
2013-08-25 03:32:00,57.1,54.4,0.00,SSW,212,0.4,2.6,91,0.00,,,0.00,WUHU216CR1000,2013-08-25 10:32:00,
2013-08-25 03:37:00,57.1,54.4,0.00,SSW,212,0.4,2.6,91,0.00,,,0.00,WUHU216CR1000,2013-08-25 10:37:00,
2013-08-25 03:42:00,57.1,54.4,0.00,SSW,212,0.4,2.6,91,0.00,,,0.00,WUHU216CR1000,2013-08-25 10:42:00,
2013-08-25 03:47:00,56.6,53.8,0.00,North,0,0.0,2.6,90,0.00,,,0.00,WUHU216CR1000,2013-08-25 10:47:00,
2013-08-25 03:52:00,56.6,53.8,0.00,North,0,0.0,0.0,90,0.00,,,0.00,WUHU216CR1000,2013-08-25 10:52:00,
2013-08-25 03:57:00,56.6,53.8,0.00,North,0,0.0,0.0,90,0.00,,,0.00,WUHU216CR1000,2013-08-25 10:57:00,
2013-08-25 04:02:00,56.1,53.2,0.00,North,0,0.0,0.0,90,0.00,,,0.00,WUHU216CR1000,2013-08-25 11:02:00,
2013-08-25 04:07:00,56.1,53.2,0.00,North,0,0.0,0.0,90,0.00,,,0.00,WUHU216CR1000,2013-08-25 11:07:00,
2013-08-25 04:12:00,56.1,53.2,0.00,North,0,0.0,0.0,90,0.00,,,0.00,WUHU216CR1000,2013-08-25 11:12:00,
2013-08-25 04:17:00,56.2,53.5,0.00,North,0,0.0,0.0,91,0.00,,,0.00,WUHU216CR1000,2013-08-25 11:17:00,
2013-08-25 04:22:00,56.2,53.5,0.00,North,0,0.0,0.0,91,0.00,,,0.00,WUHU216CR1000,2013-08-25 11:22:00,
2013-08-25 04:27:00,56.2,53.5,0.00,North,0,0.0,0.0,91,0.00,,,0.00,WUHU216CR1000,2013-08-25 11:27:00,
2013-08-25 04:32:00,56.2,53.5,0.00,North,0,0.0,0.0,91,0.00,,,0.00,WUHU216CR1000,2013-08-25 11:32:00,
2013-08-25 04:37:00,55.7,53.2,0.00,North,0,0.0,0.0,91,0.00,,,0.00,WUHU216CR1000,2013-08-25 11:37:00,
2013-08-25 04:42:00,55.7,53.2,0.00,North,0,0.0,0.0,91,0.00,,,0.00,WUHU216CR1000,2013-08-25 11:42:00,
2013-08-25 04:47:00,55.5,53.3,0.00,North,0,0.0,0.0,93,0.00,,,0.00,WUHU216CR1000,2013-08-25 11:47:00,
2013-08-25 04:52:00,55.5,53.3,0.00,North,0,0.0,0.0,93,0.00,,,0.00,WUHU216CR1000,2013-08-25 11:52:00,
2013-08-25 04:57:00,55.5,53.3,0.00,North,0,0.0,0.0,93,0.00,,,0.00,WUHU216CR1000,2013-08-25 11:57:00,
2013-08-25 05:02:00,54.1,52.0,0.00,East,81,0.1,2.4,92,0.00,,,0.00,WUHU216CR1000,2013-08-25 12:02:00,
2013-08-25 05:07:00,54.1,52.0,0.00,East,81,0.1,2.4,92,0.00,,,0.00,WUHU216CR1000,2013-08-25 12:07:00,
2013-08-25 05:12:00,54.1,52.0,0.00,East,81,0.1,2.4,92,0.00,,,0.00,WUHU216CR1000,2013-08-25 12:12:00,
2013-08-25 05:17:00,54.9,53.1,0.00,ESE,121,0.9,2.4,94,0.00,,,0.00,WUHU216CR1000,2013-08-25 12:17:00,
2013-08-25 05:22:00,54.9,53.1,0.00,ESE,121,0.9,2.3,94,0.00,,,0.00,WUHU216CR1000,2013-08-25 12:22:00,
2013-08-25 05:27:00,54.9,53.1,0.00,ESE,121,0.9,2.3,94,0.00,,,0.00,WUHU216CR1000,2013-08-25 12:27:00,
2013-08-25 05:32:00,54.7,52.9,0.00,North,0,0.0,2.3,94,0.00,,,0.00,WUHU216CR1000,2013-08-25 12:32:00,
2013-08-25 05:37:00,54.7,52.9,0.00,North,0,0.0,0.0,94,0.00,,,0.00,WUHU216CR1000,2013-08-25 12:37:00,
2013-08-25 05:42:00,54.7,52.9,0.00,North,0,0.0,0.0,94,0.00,,,0.00,WUHU216CR1000,2013-08-25 12:42:00,
2013-08-25 05:47:00,54.8,53.0,0.00,North,0,0.0,0.0,94,0.00,,,0.00,WUHU216CR1000,2013-08-25 12:47:00,
2013-08-25 05:52:00,54.8,53.0,0.00,North,0,0.0,0.0,94,0.00,,,0.00,WUHU216CR1000,2013-08-25 12:52:00,
2013-08-25 05:57:00,54.8,53.0,0.00,North,0,0.0,0.0,94,0.00,,,0.00,WUHU216CR1000,2013-08-25 12:57:00,
2013-08-25 06:02:00,54.0,52.1,0.00,North,0,0.0,0.0,93,0.00,,,0.00,WUHU216CR1000,2013-08-25 13:02:00,
2013-08-25 06:07:00,54.0,52.1,0.00,North,0,0.0,0.0,93,0.00,,,0.00,WUHU216CR1000,2013-08-25 13:07:00,
2013-08-25 06:12:00,54.0,52.1,0.00,North,0,0.0,0.0,93,0.00,,,0.00,WUHU216CR1000,2013-08-25 13:12:00,
2013-08-25 06:17:00,53.9,52.2,0.00,North,0,0.0,0.0,94,0.00,,,0.00,WUHU216CR1000,2013-08-25 13:17:00,
2013-08-25 06:22:00,53.9,52.2,0.00,North,0,0.0,0.0,94,0.00,,,0.00,WUHU216CR1000,2013-08-25 13:22:00,
2013-08-25 06:27:00,53.9,52.2,0.00,North,0,0.0,0.0,94,0.00,,,0.00,WUHU216CR1000,2013-08-25 13:27:00,
2013-08-25 06:32:00,54.1,52.2,0.00,North,0,0.0,0.0,93,0.00,,,0.00,WUHU216CR1000,2013-08-25 13:32:00,
2013-08-25 06:37:00,54.1,52.2,0.00,North,0,0.0,0.0,93,0.00,,,0.00,WUHU216CR1000,2013-08-25 13:37:00,
2013-08-25 06:42:00,54.1,52.2,0.00,North,0,0.0,0.0,93,0.00,,,0.00,WUHU216CR1000,2013-08-25 13:42:00,
2013-08-25 06:47:00,54.0,52.1,0.00,North,0,0.0,0.0,93,0.00,,,0.00,WUHU216CR1000,2013-08-25 13:47:00,
2013-08-25 06:52:00,54.0,52.1,0.00,North,0,0.0,0.0,93,0.00,,,0.00,WUHU216CR1000,2013-08-25 13:52:00,
2013-08-25 06:57:00,54.0,52.1,0.00,North,0,0.0,0.0,93,0.00,,,0.00,WUHU216CR1000,2013-08-25 13:57:00,
2013-08-25 07:02:00,53.9,52.0,0.00,North,0,0.0,0.0,93,0.00,,,0.00,WUHU216CR1000,2013-08-25 14:02:00,
2013-08-25 07:07:00,53.9,52.0,0.00,North,0,0.0,0.0,93,0.00,,,0.00,WUHU216CR1000,2013-08-25 14:07:00,
2013-08-25 07:12:00,53.9,52.0,0.00,North,0,0.0,0.0,93,0.00,,,0.00,WUHU216CR1000,2013-08-25 14:12:00,
2013-08-25 07:17:00,53.7,51.7,0.00,North,0,0.0,0.0,93,0.00,,,0.00,WUHU216CR1000,2013-08-25 14:17:00,
2013-08-25 07:22:00,53.7,51.7,0.00,North,0,0.0,0.0,93,0.00,,,0.00,WUHU216CR1000,2013-08-25 14:22:00,
2013-08-25 07:27:00,53.7,51.7,0.00,North,0,0.0,0.0,93,0.00,,,0.00,WUHU216CR1000,2013-08-25 14:27:00,
2013-08-25 07:32:00,54.9,52.8,0.00,North,0,0.0,0.0,93,0.00,,,0.00,WUHU216CR1000,2013-08-25 14:32:00,
2013-08-25 07:37:00,54.9,52.8,0.00,North,0,0.0,0.0,93,0.00,,,0.00,WUHU216CR1000,2013-08-25 14:37:00,
2013-08-25 07:42:00,54.9,52.8,0.00,North,0,0.0,0.0,93,0.00,,,0.00,WUHU216CR1000,2013-08-25 14:42:00,
2013-08-25 07:47:00,58.0,54.9,0.00,North,0,0.0,0.0,90,0.00,,,0.00,WUHU216CR1000,2013-08-25 14:47:00,
2013-08-25 07:52:00,58.0,54.9,0.00,North,0,0.0,0.0,90,0.00,,,0.00,WUHU216CR1000,2013-08-25 14:52:00,
2013-08-25 07:57:00,58.0,54.9,0.00,North,0,0.0,0.0,90,0.00,,,0.00,WUHU216CR1000,2013-08-25 14:57:00,
2013-08-25 08:02:00,60.2,55.7,0.00,North,0,0.0,0.0,85,0.00,,,0.00,WUHU216CR1000,2013-08-25 15:02:00,
2013-08-25 08:07:00,60.2,55.7,0.00,North,0,0.0,0.0,85,0.00,,,0.00,WUHU216CR1000,2013-08-25 15:07:00,
2013-08-25 08:12:00,60.2,55.7,0.00,North,0,0.0,0.0,85,0.00,,,0.00,WUHU216CR1000,2013-08-25 15:12:00,
2013-08-25 08:17:00,61.8,56.3,0.00,NW,305,0.0,0.5,82,0.00,,,0.00,WUHU216CR1000,2013-08-25 15:17:00,
2013-08-25 08:22:00,61.8,56.3,0.00,NW,305,0.0,0.5,82,0.00,,,0.00,WUHU216CR1000,2013-08-25 15:22:00,
2013-08-25 08:27:00,61.8,56.3,0.00,NW,305,0.0,0.5,82,0.00,,,0.00,WUHU216CR1000,2013-08-25 15:27:00,
2013-08-25 08:32:00,63.4,56.6,0.00,North,0,0.0,0.5,79,0.00,,,0.00,WUHU216CR1000,2013-08-25 15:32:00,
2013-08-25 08:37:00,63.4,56.6,0.00,North,0,0.0,0.0,79,0.00,,,0.00,WUHU216CR1000,2013-08-25 15:37:00,
2013-08-25 08:42:00,63.4,56.6,0.00,North,0,0.0,0.0,79,0.00,,,0.00,WUHU216CR1000,2013-08-25 15:42:00,
2013-08-25 08:47:00,64.0,57.1,0.00,WNW,283,0.4,3.6,78,0.00,,,0.00,WUHU216CR1000,2013-08-25 15:47:00,
2013-08-25 08:52:00,64.0,57.1,0.00,WNW,283,0.4,3.6,78,0.00,,,0.00,WUHU216CR1000,2013-08-25 15:52:00,
2013-08-25 08:57:00,64.0,57.1,0.00,WNW,283,0.4,3.6,78,0.00,,,0.00,WUHU216CR1000,2013-08-25 15:57:00,
2013-08-25 09:02:00,65.1,57.5,0.00,NNE,15,0.5,3.6,76,0.00,,,0.00,WUHU216CR1000,2013-08-25 16:02:00,
2013-08-25 09:07:00,65.1,57.5,0.00,NNE,15,0.5,2.9,76,0.00,,,0.00,WUHU216CR1000,2013-08-25 16:07:00,
2013-08-25 09:12:00,65.1,57.5,0.00,NNE,15,0.5,2.9,76,0.00,,,0.00,WUHU216CR1000,2013-08-25 16:12:00,
2013-08-25 09:17:00,66.0,57.8,0.00,WNW,301,1.7,4.3,75,0.00,,,0.00,WUHU216CR1000,2013-08-25 16:17:00,
2013-08-25 09:22:00,66.0,57.8,0.00,WNW,301,1.7,4.3,75,0.00,,,0.00,WUHU216CR1000,2013-08-25 16:22:00,
2013-08-25 09:27:00,66.0,57.8,0.00,WNW,301,1.7,4.3,75,0.00,,,0.00,WUHU216CR1000,2013-08-25 16:27:00,
2013-08-25 09:32:00,66.8,58.1,0.00,NNE,24,1.4,4.3,73,0.00,,,0.00,WUHU216CR1000,2013-08-25 16:32:00,
2013-08-25 09:37:00,66.8,58.1,0.00,NNE,24,1.4,3.1,73,0.00,,,0.00,WUHU216CR1000,2013-08-25 16:37:00,
2013-08-25 09:42:00,66.8,58.1,0.00,NNE,24,1.4,3.1,73,0.00,,,0.00,WUHU216CR1000,2013-08-25 16:42:00,
2013-08-25 09:47:00,68.4,58.5,0.00,WNW,283,1.5,5.4,71,0.00,,,0.00,WUHU216CR1000,2013-08-25 16:47:00,
2013-08-25 09:52:00,68.4,58.5,0.00,WNW,283,1.5,5.4,71,0.00,,,0.00,WUHU216CR1000,2013-08-25 16:52:00,
2013-08-25 09:57:00,68.4,58.5,0.00,WNW,283,1.5,5.4,71,0.00,,,0.00,WUHU216CR1000,2013-08-25 16:57:00,
2013-08-25 10:02:00,68.8,58.5,0.00,WNW,289,2.2,5.4,70,0.00,,,0.00,WUHU216CR1000,2013-08-25 17:02:00,
2013-08-25 10:07:00,68.8,58.5,0.00,WNW,289,2.2,5.4,70,0.00,,,0.00,WUHU216CR1000,2013-08-25 17:07:00,
2013-08-25 10:12:00,68.8,58.5,0.00,WNW,289,2.2,5.4,70,0.00,,,0.00,WUHU216CR1000,2013-08-25 17:12:00,
2013-08-25 10:17:00,69.9,58.8,0.00,NE,50,2.2,5.4,68,0.00,,,0.00,WUHU216CR1000,2013-08-25 17:17:00,
2013-08-25 10:22:00,69.9,58.8,0.00,NE,50,2.2,5.2,68,0.00,,,0.00,WUHU216CR1000,2013-08-25 17:22:00,
2013-08-25 10:27:00,69.9,58.8,0.00,NE,50,2.2,5.2,68,0.00,,,0.00,WUHU216CR1000,2013-08-25 17:27:00,
2013-08-25 10:32:00,71.0,59.3,0.00,North,358,2.1,6.1,67,0.00,,,0.00,WUHU216CR1000,2013-08-25 17:32:00,
2013-08-25 10:37:00,71.0,59.3,0.00,North,358,2.1,6.1,67,0.00,,,0.00,WUHU216CR1000,2013-08-25 17:37:00,
2013-08-25 10:42:00,71.0,59.3,0.00,North,358,2.1,6.1,67,0.00,,,0.00,WUHU216CR1000,2013-08-25 17:42:00,
2013-08-25 10:47:00,72.3,59.5,0.00,NE,56,1.5,6.4,64,0.00,,,0.00,WUHU216CR1000,2013-08-25 17:47:00,
2013-08-25 10:52:00,72.3,59.5,0.00,NE,56,1.5,6.4,64,0.00,,,0.00,WUHU216CR1000,2013-08-25 17:52:00,
2013-08-25 10:57:00,72.3,59.5,0.00,NE,56,1.5,6.4,64,0.00,,,0.00,WUHU216CR1000,2013-08-25 17:57:00,
2013-08-25 11:02:00,73.2,59.7,0.00,NE,38,2.0,6.4,63,0.00,,,0.00,WUHU216CR1000,2013-08-25 18:02:00,
2013-08-25 11:07:00,73.2,59.7,0.00,NE,38,2.0,5.3,63,0.00,,,0.00,WUHU216CR1000,2013-08-25 18:07:00,
2013-08-25 11:12:00,73.2,59.7,0.00,NE,38,2.0,5.3,63,0.00,,,0.00,WUHU216CR1000,2013-08-25 18:12:00,
2013-08-25 11:17:00,74.3,60.3,0.00,SW,217,3.4,7.7,62,0.00,,,0.00,WUHU216CR1000,2013-08-25 18:17:00,
2013-08-25 11:22:00,74.3,60.3,0.00,SW,217,3.4,7.7,62,0.00,,,0.00,WUHU216CR1000,2013-08-25 18:22:00,
2013-08-25 11:27:00,74.3,60.3,0.00,SW,217,3.4,7.7,62,0.00,,,0.00,WUHU216CR1000,2013-08-25 18:27:00,
2013-08-25 11:32:00,75.8,60.9,0.00,South,188,2.9,7.7,60,0.00,,,0.00,WUHU216CR1000,2013-08-25 18:32:00,
2013-08-25 11:37:00,75.8,60.9,0.00,South,188,2.9,7.7,60,0.00,,,0.00,WUHU216CR1000,2013-08-25 18:37:00,
2013-08-25 11:42:00,75.8,60.9,0.00,South,188,2.9,7.7,60,0.00,,,0.00,WUHU216CR1000,2013-08-25 18:42:00,
2013-08-25 11:47:00,76.3,60.9,0.00,South,172,2.3,8.8,59,0.00,,,0.00,WUHU216CR1000,2013-08-25 18:47:00,
2013-08-25 11:52:00,76.3,60.9,0.00,South,172,2.3,8.8,59,0.00,,,0.00,WUHU216CR1000,2013-08-25 18:52:00,
2013-08-25 11:57:00,76.3,60.9,0.00,South,172,2.3,8.8,59,0.00,,,0.00,WUHU216CR1000,2013-08-25 18:57:00,
2013-08-25 12:02:00,75.5,60.6,0.00,SSW,195,3.1,8.8,60,0.00,,,0.00,WUHU216CR1000,2013-08-25 19:02:00,
2013-08-25 12:07:00,75.5,60.6,0.00,SSW,195,3.1,8.7,60,0.00,,,0.00,WUHU216CR1000,2013-08-25 19:07:00,
2013-08-25 12:12:00,75.5,60.6,0.00,SSW,195,3.1,8.7,60,0.00,,,0.00,WUHU216CR1000,2013-08-25 19:12:00,
2013-08-25 12:17:00,76.3,61.0,0.00,SSE,166,4.0,9.1,59,0.00,,,0.00,WUHU216CR1000,2013-08-25 19:17:00,
2013-08-25 12:22:00,76.3,61.0,0.00,SSE,166,4.0,9.1,59,0.00,,,0.00,WUHU216CR1000,2013-08-25 19:22:00,
2013-08-25 12:27:00,76.3,61.0,0.00,SSE,166,4.0,9.1,59,0.00,,,0.00,WUHU216CR1000,2013-08-25 19:27:00,
2013-08-25 12:32:00,77.9,60.7,0.00,SSW,198,4.1,9.8,56,0.00,,,0.00,WUHU216CR1000,2013-08-25 19:32:00,
2013-08-25 12:37:00,77.9,60.7,0.00,SSW,198,4.1,9.8,56,0.00,,,0.00,WUHU216CR1000,2013-08-25 19:37:00,
2013-08-25 12:42:00,77.9,60.7,0.00,SSW,198,4.1,9.8,56,0.00,,,0.00,WUHU216CR1000,2013-08-25 19:42:00,
2013-08-25 12:47:00,78.6,60.5,0.00,South,176,2.8,9.9,54,0.00,,,0.00,WUHU216CR1000,2013-08-25 19:47:00,
2013-08-25 12:52:00,78.6,60.5,0.00,South,176,2.8,9.9,54,0.00,,,0.00,WUHU216CR1000,2013-08-25 19:52:00,
2013-08-25 12:57:00,78.6,60.5,0.00,South,176,2.8,9.9,54,0.00,,,0.00,WUHU216CR1000,2013-08-25 19:57:00,
2013-08-25 13:02:00,79.1,60.0,0.00,SSW,204,3.9,11.1,52,0.00,,,0.00,WUHU216CR1000,2013-08-25 20:02:00,
2013-08-25 13:07:00,79.1,60.0,0.00,SSW,204,3.9,11.1,52,0.00,,,0.00,WUHU216CR1000,2013-08-25 20:07:00,
2013-08-25 13:12:00,79.1,60.0,0.00,SSW,204,3.9,11.1,52,0.00,,,0.00,WUHU216CR1000,2013-08-25 20:12:00,
2013-08-25 13:17:00,80.0,59.7,0.00,South,187,2.8,11.1,50,0.00,,,0.00,WUHU216CR1000,2013-08-25 20:17:00,
2013-08-25 13:22:00,80.0,59.7,0.00,South,187,2.8,11.1,50,0.00,,,0.00,WUHU216CR1000,2013-08-25 20:22:00,
2013-08-25 13:27:00,80.0,59.7,0.00,South,187,2.8,11.1,50,0.00,,,0.00,WUHU216CR1000,2013-08-25 20:27:00,
2013-08-25 13:32:00,80.1,60.2,0.00,SSE,154,4.6,11.3,51,0.00,,,0.00,WUHU216CR1000,2013-08-25 20:32:00,
2013-08-25 13:37:00,80.1,60.2,0.00,SSE,154,4.6,11.3,51,0.00,,,0.00,WUHU216CR1000,2013-08-25 20:37:00,
2013-08-25 13:42:00,80.1,60.2,0.00,SSE,154,4.6,11.3,51,0.00,,,0.00,WUHU216CR1000,2013-08-25 20:42:00,
2013-08-25 13:47:00,79.9,60.8,0.00,SSE,166,4.9,13.7,52,0.00,,,0.00,WUHU216CR1000,2013-08-25 20:47:00,
2013-08-25 13:52:00,79.9,60.8,0.00,SSE,166,4.9,13.7,52,0.00,,,0.00,WUHU216CR1000,2013-08-25 20:52:00,
2013-08-25 13:57:00,79.9,60.8,0.00,SSE,166,4.9,13.7,52,0.00,,,0.00,WUHU216CR1000,2013-08-25 20:57:00,
2013-08-25 14:02:00,80.6,61.3,0.00,South,185,5.0,13.7,52,0.00,,,0.00,WUHU216CR1000,2013-08-25 21:02:00,
2013-08-25 14:07:00,80.6,61.3,0.00,South,185,5.0,12.5,52,0.00,,,0.00,WUHU216CR1000,2013-08-25 21:07:00,
2013-08-25 14:12:00,80.6,61.3,0.00,South,185,5.0,12.5,52,0.00,,,0.00,WUHU216CR1000,2013-08-25 21:12:00,
2013-08-25 14:17:00,80.8,61.4,0.00,South,188,5.5,12.8,52,0.00,,,0.00,WUHU216CR1000,2013-08-25 21:17:00,
2013-08-25 14:22:00,80.8,61.4,0.00,South,188,5.5,12.8,52,0.00,,,0.00,WUHU216CR1000,2013-08-25 21:22:00,
2013-08-25 14:27:00,80.8,61.4,0.00,South,188,5.5,12.8,52,0.00,,,0.00,WUHU216CR1000,2013-08-25 21:27:00,
2013-08-25 14:32:00,80.8,60.8,0.00,South,171,5.2,13.2,51,0.00,,,0.00,WUHU216CR1000,2013-08-25 21:32:00,
2013-08-25 14:37:00,80.8,60.8,0.00,South,171,5.2,13.2,51,0.00,,,0.00,WUHU216CR1000,2013-08-25 21:37:00,
2013-08-25 14:42:00,80.8,60.8,0.00,South,171,5.2,13.2,51,0.00,,,0.00,WUHU216CR1000,2013-08-25 21:42:00,
2013-08-25 14:47:00,80.8,60.9,0.00,SSE,155,5.4,14.5,51,0.00,,,0.00,WUHU216CR1000,2013-08-25 21:47:00,
2013-08-25 14:52:00,80.8,60.9,0.00,SSE,155,5.4,14.5,51,0.00,,,0.00,WUHU216CR1000,2013-08-25 21:52:00,
2013-08-25 14:57:00,80.8,60.9,0.00,SSE,155,5.4,14.5,51,0.00,,,0.00,WUHU216CR1000,2013-08-25 21:57:00,
2013-08-25 15:02:00,81.0,60.6,0.00,South,184,4.0,15.9,50,0.00,,,0.00,WUHU216CR1000,2013-08-25 22:02:00,
2013-08-25 15:07:00,81.0,60.6,0.00,South,184,4.0,15.9,50,0.00,,,0.00,WUHU216CR1000,2013-08-25 22:07:00,
2013-08-25 15:12:00,81.0,60.6,0.00,South,184,4.0,15.9,50,0.00,,,0.00,WUHU216CR1000,2013-08-25 22:12:00,
2013-08-25 15:17:00,80.1,59.3,0.00,South,177,6.0,15.9,49,0.00,,,0.00,WUHU216CR1000,2013-08-25 22:17:00,
2013-08-25 15:22:00,80.1,59.3,0.00,South,177,6.0,14.7,49,0.00,,,0.00,WUHU216CR1000,2013-08-25 22:22:00,
2013-08-25 15:27:00,80.1,59.3,0.00,South,177,6.0,14.7,49,0.00,,,0.00,WUHU216CR1000,2013-08-25 22:27:00,
2013-08-25 15:32:00,80.3,58.4,0.00,South,189,5.5,14.7,47,0.00,,,0.00,WUHU216CR1000,2013-08-25 22:32:00,
2013-08-25 15:37:00,80.3,58.4,0.00,South,189,5.5,13.7,47,0.00,,,0.00,WUHU216CR1000,2013-08-25 22:37:00,
2013-08-25 15:42:00,80.3,58.4,0.00,South,189,5.5,13.7,47,0.00,,,0.00,WUHU216CR1000,2013-08-25 22:42:00,
2013-08-25 15:47:00,79.9,57.7,0.00,SSE,161,6.3,13.8,47,0.00,,,0.00,WUHU216CR1000,2013-08-25 22:47:00,
2013-08-25 15:52:00,79.9,57.7,0.00,SSE,161,6.3,13.8,47,0.00,,,0.00,WUHU216CR1000,2013-08-25 22:52:00,
2013-08-25 15:57:00,79.9,57.7,0.00,SSE,161,6.3,13.8,47,0.00,,,0.00,WUHU216CR1000,2013-08-25 22:57:00,
2013-08-25 16:02:00,79.7,56.3,0.00,SSE,165,5.9,13.8,45,0.00,,,0.00,WUHU216CR1000,2013-08-25 23:02:00,
2013-08-25 16:07:00,79.7,56.3,0.00,SSE,165,5.9,12.6,45,0.00,,,0.00,WUHU216CR1000,2013-08-25 23:07:00,
2013-08-25 16:12:00,79.7,56.3,0.00,SSE,165,5.9,12.6,45,0.00,,,0.00,WUHU216CR1000,2013-08-25 23:12:00,
2013-08-25 16:17:00,80.0,55.3,0.00,SSE,153,5.1,12.7,43,0.00,,,0.00,WUHU216CR1000,2013-08-25 23:17:00,
2013-08-25 16:22:00,80.0,55.3,0.00,SSE,153,5.1,12.7,43,0.00,,,0.00,WUHU216CR1000,2013-08-25 23:22:00,
2013-08-25 16:27:00,80.0,55.3,0.00,SSE,153,5.1,12.7,43,0.00,,,0.00,WUHU216CR1000,2013-08-25 23:27:00,
2013-08-25 16:32:00,80.0,54.9,0.00,SSE,159,5.1,12.7,42,0.00,,,0.00,WUHU216CR1000,2013-08-25 23:32:00,
2013-08-25 16:37:00,80.0,54.9,0.00,SSE,159,5.1,11.0,42,0.00,,,0.00,WUHU216CR1000,2013-08-25 23:37:00,
2013-08-25 16:42:00,80.0,54.9,0.00,SSE,159,5.1,11.0,42,0.00,,,0.00,WUHU216CR1000,2013-08-25 23:42:00,
2013-08-25 16:47:00,79.6,54.2,0.00,SSE,159,5.1,11.2,42,0.00,,,0.00,WUHU216CR1000,2013-08-25 23:47:00,
2013-08-25 16:52:00,79.6,54.2,0.00,SSE,159,5.1,11.2,42,0.00,,,0.00,WUHU216CR1000,2013-08-25 23:52:00,
2013-08-25 16:57:00,79.6,54.2,0.00,SSE,159,5.1,11.2,42,0.00,,,0.00,WUHU216CR1000,2013-08-25 23:57:00,
2013-08-25 17:02:00,79.3,55.6,0.00,SSE,162,5.0,11.2,44,0.00,,,0.00,WUHU216CR1000,2013-08-26 00:02:00,
2013-08-25 17:07:00,79.3,55.6,0.00,SSE,162,5.0,10.1,44,0.00,,,0.00,WUHU216CR1000,2013-08-26 00:07:00,
2013-08-25 17:12:00,79.3,55.6,0.00,SSE,162,5.0,10.1,44,0.00,,,0.00,WUHU216CR1000,2013-08-26 00:12:00,
2013-08-25 17:17:00,78.8,55.6,0.00,SSE,165,5.3,10.1,45,0.00,,,0.00,WUHU216CR1000,2013-08-26 00:17:00,
2013-08-25 17:22:00,78.8,55.6,0.00,SSE,165,5.3,10.1,45,0.00,,,0.00,WUHU216CR1000,2013-08-26 00:22:00,
2013-08-25 17:27:00,78.8,55.6,0.00,SSE,165,5.3,10.1,45,0.00,,,0.00,WUHU216CR1000,2013-08-26 00:27:00,
2013-08-25 17:32:00,77.9,55.3,0.00,South,172,6.0,12.5,46,0.00,,,0.00,WUHU216CR1000,2013-08-26 00:32:00,
2013-08-25 17:37:00,77.9,55.3,0.00,South,172,6.0,12.5,46,0.00,,,0.00,WUHU216CR1000,2013-08-26 00:37:00,
2013-08-25 17:42:00,77.9,55.3,0.00,South,172,6.0,12.5,46,0.00,,,0.00,WUHU216CR1000,2013-08-26 00:42:00,
2013-08-25 17:47:00,77.7,54.9,0.00,South,175,5.1,12.5,45,0.00,,,0.00,WUHU216CR1000,2013-08-26 00:47:00,
2013-08-25 17:52:00,77.7,54.9,0.00,South,175,5.1,11.3,45,0.00,,,0.00,WUHU216CR1000,2013-08-26 00:52:00,
2013-08-25 17:57:00,77.7,54.9,0.00,South,175,5.1,11.3,45,0.00,,,0.00,WUHU216CR1000,2013-08-26 00:57:00,
2013-08-25 18:02:00,77.0,55.0,0.00,South,170,5.2,11.3,47,0.00,,,0.00,WUHU216CR1000,2013-08-26 01:02:00,
2013-08-25 18:07:00,77.0,55.0,0.00,South,170,5.2,11.3,47,0.00,,,0.00,WUHU216CR1000,2013-08-26 01:07:00,
2013-08-25 18:12:00,77.0,55.0,0.00,South,170,5.2,11.3,47,0.00,,,0.00,WUHU216CR1000,2013-08-26 01:12:00,
2013-08-25 18:17:00,76.7,54.5,0.00,SSE,168,4.1,11.3,46,0.00,,,0.00,WUHU216CR1000,2013-08-26 01:17:00,
2013-08-25 18:22:00,76.7,54.5,0.00,SSE,168,4.1,9.8,46,0.00,,,0.00,WUHU216CR1000,2013-08-26 01:22:00,
2013-08-25 18:27:00,76.7,54.5,0.00,SSE,168,4.1,9.8,46,0.00,,,0.00,WUHU216CR1000,2013-08-26 01:27:00,
2013-08-25 18:32:00,75.9,54.2,0.00,SE,144,4.5,9.9,47,0.00,,,0.00,WUHU216CR1000,2013-08-26 01:32:00,
2013-08-25 18:37:00,75.9,54.2,0.00,SE,144,4.5,9.9,47,0.00,,,0.00,WUHU216CR1000,2013-08-26 01:37:00,
2013-08-25 18:42:00,75.9,54.2,0.00,SE,144,4.5,9.9,47,0.00,,,0.00,WUHU216CR1000,2013-08-26 01:42:00,
2013-08-25 18:47:00,75.0,55.4,0.00,SE,145,4.4,9.9,50,0.00,,,0.00,WUHU216CR1000,2013-08-26 01:47:00,
2013-08-25 18:52:00,75.0,55.4,0.00,SE,145,4.4,8.6,50,0.00,,,0.00,WUHU216CR1000,2013-08-26 01:52:00,
2013-08-25 18:57:00,75.0,55.4,0.00,SE,145,4.4,8.6,50,0.00,,,0.00,WUHU216CR1000,2013-08-26 01:57:00,
2013-08-25 19:02:00,74.0,55.6,0.00,ESE,122,4.3,9.3,53,0.00,,,0.00,WUHU216CR1000,2013-08-26 02:02:00,
2013-08-25 19:07:00,74.0,55.6,0.00,ESE,122,4.3,9.3,53,0.00,,,0.00,WUHU216CR1000,2013-08-26 02:07:00,
2013-08-25 19:12:00,74.0,55.6,0.00,ESE,122,4.3,9.3,53,0.00,,,0.00,WUHU216CR1000,2013-08-26 02:12:00,
2013-08-25 19:17:00,72.1,56.0,0.00,SSE,156,5.4,10.0,57,0.00,,,0.00,WUHU216CR1000,2013-08-26 02:17:00,
2013-08-25 19:22:00,72.1,56.0,0.00,SSE,156,5.4,10.0,57,0.00,,,0.00,WUHU216CR1000,2013-08-26 02:22:00,
2013-08-25 19:27:00,72.1,56.0,0.00,SSE,156,5.4,10.0,57,0.00,,,0.00,WUHU216CR1000,2013-08-26 02:27:00,
2013-08-25 19:32:00,70.9,56.3,0.00,SSE,161,4.4,11.4,60,0.00,,,0.00,WUHU216CR1000,2013-08-26 02:32:00,
2013-08-25 19:37:00,70.9,56.3,0.00,SSE,161,4.4,11.4,60,0.00,,,0.00,WUHU216CR1000,2013-08-26 02:37:00,
2013-08-25 19:42:00,70.9,56.3,0.00,SSE,161,4.4,11.4,60,0.00,,,0.00,WUHU216CR1000,2013-08-26 02:42:00,
2013-08-25 19:47:00,69.4,57.1,0.00,SE,131,3.9,11.4,65,0.00,,,0.00,WUHU216CR1000,2013-08-26 02:47:00,
2013-08-25 19:52:00,69.4,57.1,0.00,SE,131,3.9,8.9,65,0.00,,,0.00,WUHU216CR1000,2013-08-26 02:52:00,
2013-08-25 19:57:00,69.4,57.1,0.00,SE,131,3.9,8.9,65,0.00,,,0.00,WUHU216CR1000,2013-08-26 02:57:00,
2013-08-25 20:02:00,67.7,57.5,0.00,SE,132,3.1,8.9,70,0.00,,,0.00,WUHU216CR1000,2013-08-26 03:02:00,
2013-08-25 20:07:00,67.7,57.5,0.00,SE,132,3.1,7.7,70,0.00,,,0.00,WUHU216CR1000,2013-08-26 03:07:00,
2013-08-25 20:12:00,67.7,57.5,0.00,SE,132,3.1,7.7,70,0.00,,,0.00,WUHU216CR1000,2013-08-26 03:12:00,
2013-08-25 20:17:00,66.6,57.4,0.00,SE,140,2.5,7.7,72,0.00,,,0.00,WUHU216CR1000,2013-08-26 03:17:00,
2013-08-25 20:22:00,66.6,57.4,0.00,SE,140,2.5,7.5,72,0.00,,,0.00,WUHU216CR1000,2013-08-26 03:22:00,
2013-08-25 20:27:00,66.6,57.4,0.00,SE,140,2.5,7.5,72,0.00,,,0.00,WUHU216CR1000,2013-08-26 03:27:00,
2013-08-25 20:32:00,65.7,57.4,0.00,ESE,119,1.5,7.5,75,0.00,,,0.00,WUHU216CR1000,2013-08-26 03:32:00,
2013-08-25 20:37:00,65.7,57.4,0.00,ESE,119,1.5,4.2,75,0.00,,,0.00,WUHU216CR1000,2013-08-26 03:37:00,
2013-08-25 20:42:00,65.7,57.4,0.00,ESE,119,1.5,4.2,75,0.00,,,0.00,WUHU216CR1000,2013-08-26 03:42:00,
2013-08-25 20:47:00,64.1,57.2,0.00,SE,144,1.3,4.5,78,0.00,,,0.00,WUHU216CR1000,2013-08-26 03:47:00,
2013-08-25 20:52:00,64.1,57.2,0.00,SE,144,1.3,4.5,78,0.00,,,0.00,WUHU216CR1000,2013-08-26 03:52:00,
2013-08-25 20:57:00,64.1,57.2,0.00,SE,144,1.3,4.5,78,0.00,,,0.00,WUHU216CR1000,2013-08-26 03:57:00,
2013-08-25 21:01:00,64.1,57.2,0.00,SE,144,1.3,4.5,78,0.00,,,0.00,WUHU216CR1000,2013-08-26 04:01:00,
2013-08-25 21:06:00,63.2,57.3,0.00,SE,124,2.0,3.7,81,0.00,,,0.00,WUHU216CR1000,2013-08-26 04:06:00,
2013-08-25 21:11:00,63.2,57.3,0.00,SE,124,2.0,3.7,81,0.00,,,0.00,WUHU216CR1000,2013-08-26 04:11:00,
2013-08-25 21:16:00,62.6,57.3,0.00,East,97,2.1,4.1,83,0.00,,,0.00,WUHU216CR1000,2013-08-26 04:16:00,
2013-08-25 21:21:00,62.6,57.3,0.00,East,97,2.1,4.1,83,0.00,,,0.00,WUHU216CR1000,2013-08-26 04:21:00,
2013-08-25 21:26:00,62.6,57.3,0.00,East,97,2.1,4.1,83,0.00,,,0.00,WUHU216CR1000,2013-08-26 04:26:00,
2013-08-25 21:31:00,61.8,57.3,0.00,ESE,112,1.1,4.1,85,0.00,,,0.00,WUHU216CR1000,2013-08-26 04:31:00,
2013-08-25 21:36:00,61.8,57.3,0.00,ESE,112,1.1,4.1,85,0.00,,,0.00,WUHU216CR1000,2013-08-26 04:36:00,
2013-08-25 21:41:00,61.8,57.3,0.00,ESE,112,1.1,4.1,85,0.00,,,0.00,WUHU216CR1000,2013-08-26 04:41:00,
2013-08-25 21:46:00,60.6,56.6,0.00,North,0,0.0,4.1,86,0.00,,,0.00,WUHU216CR1000,2013-08-26 04:46:00,
2013-08-25 21:51:00,60.6,56.6,0.00,North,0,0.0,0.0,86,0.00,,,0.00,WUHU216CR1000,2013-08-26 04:51:00,
2013-08-25 21:56:00,60.6,56.6,0.00,North,0,0.0,0.0,86,0.00,,,0.00,WUHU216CR1000,2013-08-26 04:56:00,
2013-08-25 22:01:00,59.4,55.9,0.00,North,0,0.0,0.0,88,0.00,,,0.00,WUHU216CR1000,2013-08-26 05:01:00,
2013-08-25 22:06:00,59.4,55.9,0.00,North,0,0.0,0.0,88,0.00,,,0.00,WUHU216CR1000,2013-08-26 05:06:00,
2013-08-25 22:11:00,59.4,55.9,0.00,North,0,0.0,0.0,88,0.00,,,0.00,WUHU216CR1000,2013-08-26 05:11:00,
2013-08-25 22:16:00,59.5,55.9,0.00,ENE,75,0.3,2.4,88,0.00,,,0.00,WUHU216CR1000,2013-08-26 05:16:00,
2013-08-25 22:21:00,59.5,55.9,0.00,ENE,75,0.3,2.4,88,0.00,,,0.00,WUHU216CR1000,2013-08-26 05:21:00,
2013-08-25 22:26:00,59.5,55.9,0.00,ENE,75,0.3,2.4,88,0.00,,,0.00,WUHU216CR1000,2013-08-26 05:26:00,
2013-08-25 22:31:00,58.4,54.8,0.00,North,0,0.0,2.4,88,0.00,,,0.00,WUHU216CR1000,2013-08-26 05:31:00,
2013-08-25 22:36:00,58.4,54.8,0.00,North,0,0.0,0.0,88,0.00,,,0.00,WUHU216CR1000,2013-08-26 05:36:00,
2013-08-25 22:41:00,58.4,54.8,0.00,North,0,0.0,0.0,88,0.00,,,0.00,WUHU216CR1000,2013-08-26 05:41:00,
2013-08-25 22:46:00,56.6,54.0,0.00,North,0,0.0,0.0,91,0.00,,,0.00,WUHU216CR1000,2013-08-26 05:46:00,
2013-08-25 22:51:00,56.6,54.0,0.00,North,0,0.0,0.0,91,0.00,,,0.00,WUHU216CR1000,2013-08-26 05:51:00,
2013-08-25 22:56:00,56.6,54.0,0.00,North,0,0.0,0.0,91,0.00,,,0.00,WUHU216CR1000,2013-08-26 05:56:00,
2013-08-25 23:01:00,56.4,54.3,0.00,ESE,109,0.2,2.5,93,0.00,,,0.00,WUHU216CR1000,2013-08-26 06:01:00,
2013-08-25 23:06:00,56.4,54.3,0.00,ESE,109,0.2,2.5,93,0.00,,,0.00,WUHU216CR1000,2013-08-26 06:06:00,
2013-08-25 23:11:00,56.4,54.3,0.00,ESE,109,0.2,2.5,93,0.00,,,0.00,WUHU216CR1000,2013-08-26 06:11:00,
2013-08-25 23:16:00,56.7,54.9,0.00,ESE,108,1.7,2.6,94,0.00,,,0.00,WUHU216CR1000,2013-08-26 06:16:00,
2013-08-25 23:21:00,56.7,54.9,0.00,ESE,108,1.7,2.6,94,0.00,,,0.00,WUHU216CR1000,2013-08-26 06:21:00,
2013-08-25 23:26:00,56.7,54.9,0.00,ESE,108,1.7,2.6,94,0.00,,,0.00,WUHU216CR1000,2013-08-26 06:26:00,
2013-08-25 23:31:00,57.0,55.3,0.00,SSE,151,0.8,2.6,94,0.00,,,0.00,WUHU216CR1000,2013-08-26 06:31:00,
2013-08-25 23:36:00,57.0,55.3,0.00,SSE,151,0.8,1.3,94,0.00,,,0.00,WUHU216CR1000,2013-08-26 06:36:00,
2013-08-25 23:41:00,57.0,55.3,0.00,SSE,151,0.8,1.3,94,0.00,,,0.00,WUHU216CR1000,2013-08-26 06:41:00,
2013-08-25 23:46:00,57.1,55.2,0.00,North,0,0.0,1.3,93,0.00,,,0.00,WUHU216CR1000,2013-08-26 06:46:00,
2013-08-25 23:51:00,57.1,55.2,0.00,North,0,0.0,0.0,93,0.00,,,0.00,WUHU216CR1000,2013-08-26 06:51:00,
2013-08-25 23:56:00,57.1,55.2,0.00,North,0,0.0,0.0,93,0.00,,,0.00,WUHU216CR1000,2013-08-26 06:56:00,